sensor_id;sensor_type;location;lat;lon;timestamp;P1;durP1;ratioP1;P2;durP2;ratioP2
44508;SDS011;30214;52.246;14.408;2023-09-18T00:02:01;12.75;;;8.82;;
44508;SDS011;30214;52.246;14.408;2023-09-18T00:04:30;12.50;;;8.82;;
44508;SDS011;30214;52.246;14.408;2023-09-18T00:06:57;11.90;;;9.25;;
44508;SDS011;30214;52.246;14.408;2023-09-18T00:09:24;13.55;;;9.15;;
44508;SDS011;30214;52.246;14.408;2023-09-18T00:11:51;13.02;;;9.43;;
44508;SDS011;30214;52.246;14.408;2023-09-18T00:14:17;12.20;;;8.90;;
44508;SDS011;30214;52.246;14.408;2023-09-18T00:16:44;11.52;;;9.15;;
44508;SDS011;30214;52.246;14.408;2023-09-18T00:19:14;13.15;;;9.25;;
44508;SDS011;30214;52.246;14.408;2023-09-18T00:21:42;13.20;;;9.07;;
44508;SDS011;30214;52.246;14.408;2023-09-18T00:24:09;13.65;;;8.80;;
44508;SDS011;30214;52.246;14.408;2023-09-18T00:26:37;14.55;;;9.48;;
44508;SDS011;30214;52.246;14.408;2023-09-18T00:29:03;10.73;;;8.75;;
44508;SDS011;30214;52.246;14.408;2023-09-18T00:31:30;11.50;;;8.65;;
44508;SDS011;30214;52.246;14.408;2023-09-18T00:34:00;12.13;;;8.93;;
44508;SDS011;30214;52.246;14.408;2023-09-18T00:36:27;14.98;;;9.13;;
44508;SDS011;30214;52.246;14.408;2023-09-18T00:38:55;12.13;;;9.10;;
44508;SDS011;30214;52.246;14.408;2023-09-18T00:41:22;14.15;;;9.30;;
44508;SDS011;30214;52.246;14.408;2023-09-18T00:43:49;12.77;;;8.82;;
44508;SDS011;30214;52.246;14.408;2023-09-18T00:46:16;16.83;;;9.70;;
44508;SDS011;30214;52.246;14.408;2023-09-18T00:48:44;12.88;;;9.23;;
44508;SDS011;30214;52.246;14.408;2023-09-18T00:51:12;12.32;;;9.18;;
44508;SDS011;30214;52.246;14.408;2023-09-18T00:53:41;12.35;;;9.10;;
44508;SDS011;30214;52.246;14.408;2023-09-18T00:56:16;12.50;;;8.70;;
44508;SDS011;30214;52.246;14.408;2023-09-18T00:58:45;14.68;;;9.10;;
44508;SDS011;30214;52.246;14.408;2023-09-18T01:01:13;10.90;;;8.77;;
44508;SDS011;30214;52.246;14.408;2023-09-18T01:03:42;9.90;;;7.95;;
44508;SDS011;30214;52.246;14.408;2023-09-18T01:06:09;12.82;;;8.63;;
44508;SDS011;30214;52.246;14.408;2023-09-18T01:08:36;10.65;;;8.30;;
44508;SDS011;30214;52.246;14.408;2023-09-18T01:11:04;10.13;;;8.35;;
44508;SDS011;30214;52.246;14.408;2023-09-18T01:13:37;12.57;;;8.23;;
44508;SDS011;30214;52.246;14.408;2023-09-18T01:16:08;11.95;;;8.18;;
44508;SDS011;30214;52.246;14.408;2023-09-18T01:18:48;12.73;;;8.90;;
44508;SDS011;30214;52.246;14.408;2023-09-18T01:21:15;14.82;;;8.15;;
44508;SDS011;30214;52.246;14.408;2023-09-18T01:23:44;9.27;;;7.53;;
44508;SDS011;30214;52.246;14.408;2023-09-18T01:26:11;12.38;;;8.93;;
44508;SDS011;30214;52.246;14.408;2023-09-18T01:28:39;13.38;;;8.85;;
44508;SDS011;30214;52.246;14.408;2023-09-18T01:31:06;14.07;;;8.90;;
44508;SDS011;30214;52.246;14.408;2023-09-18T01:33:33;15.45;;;9.13;;
44508;SDS011;30214;52.246;14.408;2023-09-18T01:36:05;12.35;;;8.65;;
44508;SDS011;30214;52.246;14.408;2023-09-18T01:38:35;13.40;;;9.60;;
44508;SDS011;30214;52.246;14.408;2023-09-18T01:41:04;12.73;;;9.57;;
44508;SDS011;30214;52.246;14.408;2023-09-18T01:43:31;12.68;;;9.70;;
44508;SDS011;30214;52.246;14.408;2023-09-18T01:45:58;13.82;;;10.35;;
44508;SDS011;30214;52.246;14.408;2023-09-18T01:48:25;14.43;;;9.40;;
44508;SDS011;30214;52.246;14.408;2023-09-18T01:50:52;15.30;;;10.10;;
44508;SDS011;30214;52.246;14.408;2023-09-18T01:53:19;12.68;;;9.40;;
44508;SDS011;30214;52.246;14.408;2023-09-18T01:55:46;12.10;;;8.60;;
44508;SDS011;30214;52.246;14.408;2023-09-18T01:58:14;13.95;;;8.45;;
44508;SDS011;30214;52.246;14.408;2023-09-18T02:00:41;10.10;;;7.80;;
44508;SDS011;30214;52.246;14.408;2023-09-18T02:03:08;13.90;;;8.55;;
44508;SDS011;30214;52.246;14.408;2023-09-18T02:05:35;13.73;;;9.20;;
44508;SDS011;30214;52.246;14.408;2023-09-18T02:08:02;15.65;;;9.15;;
44508;SDS011;30214;52.246;14.408;2023-09-18T02:10:30;12.82;;;9.05;;
44508;SDS011;30214;52.246;14.408;2023-09-18T02:12:58;11.15;;;8.98;;
44508;SDS011;30214;52.246;14.408;2023-09-18T02:15:25;10.02;;;8.52;;
44508;SDS011;30214;52.246;14.408;2023-09-18T02:17:52;11.75;;;8.68;;
44508;SDS011;30214;52.246;14.408;2023-09-18T02:20:19;16.75;;;9.68;;
44508;SDS011;30214;52.246;14.408;2023-09-18T02:22:46;13.73;;;9.93;;
44508;SDS011;30214;52.246;14.408;2023-09-18T02:25:13;12.30;;;9.75;;
44508;SDS011;30214;52.246;14.408;2023-09-18T02:27:40;13.55;;;9.90;;
44508;SDS011;30214;52.246;14.408;2023-09-18T02:30:08;14.27;;;10.32;;
44508;SDS011;30214;52.246;14.408;2023-09-18T02:32:37;16.42;;;10.95;;
44508;SDS011;30214;52.246;14.408;2023-09-18T02:35:05;15.32;;;10.40;;
44508;SDS011;30214;52.246;14.408;2023-09-18T02:37:33;14.07;;;9.73;;
44508;SDS011;30214;52.246;14.408;2023-09-18T02:40:03;18.10;;;10.00;;
44508;SDS011;30214;52.246;14.408;2023-09-18T02:42:32;12.85;;;9.88;;
44508;SDS011;30214;52.246;14.408;2023-09-18T02:44:59;12.90;;;10.00;;
44508;SDS011;30214;52.246;14.408;2023-09-18T02:47:26;16.08;;;10.05;;
44508;SDS011;30214;52.246;14.408;2023-09-18T02:49:55;15.65;;;10.43;;
44508;SDS011;30214;52.246;14.408;2023-09-18T02:52:22;17.63;;;9.75;;
44508;SDS011;30214;52.246;14.408;2023-09-18T02:54:49;14.35;;;9.77;;
44508;SDS011;30214;52.246;14.408;2023-09-18T02:57:17;11.48;;;9.77;;
44508;SDS011;30214;52.246;14.408;2023-09-18T02:59:44;15.70;;;10.45;;
44508;SDS011;30214;52.246;14.408;2023-09-18T03:02:11;14.27;;;10.35;;
44508;SDS011;30214;52.246;14.408;2023-09-18T03:04:38;14.98;;;10.43;;
44508;SDS011;30214;52.246;14.408;2023-09-18T03:07:07;13.00;;;10.73;;
44508;SDS011;30214;52.246;14.408;2023-09-18T03:09:34;13.65;;;10.43;;
44508;SDS011;30214;52.246;14.408;2023-09-18T03:12:01;13.68;;;10.27;;
44508;SDS011;30214;52.246;14.408;2023-09-18T03:14:31;13.13;;;10.32;;
44508;SDS011;30214;52.246;14.408;2023-09-18T03:16:58;16.73;;;10.93;;
44508;SDS011;30214;52.246;14.408;2023-09-18T03:19:25;12.65;;;10.00;;
44508;SDS011;30214;52.246;14.408;2023-09-18T03:21:52;17.25;;;11.38;;
44508;SDS011;30214;52.246;14.408;2023-09-18T03:24:21;14.48;;;10.75;;
44508;SDS011;30214;52.246;14.408;2023-09-18T03:26:48;14.98;;;11.02;;
44508;SDS011;30214;52.246;14.408;2023-09-18T03:29:15;18.83;;;10.75;;
44508;SDS011;30214;52.246;14.408;2023-09-18T03:31:42;15.27;;;10.13;;
44508;SDS011;30214;52.246;14.408;2023-09-18T03:34:09;18.80;;;10.55;;
44508;SDS011;30214;52.246;14.408;2023-09-18T03:36:36;13.82;;;10.90;;
44508;SDS011;30214;52.246;14.408;2023-09-18T03:39:04;12.10;;;9.95;;
44508;SDS011;30214;52.246;14.408;2023-09-18T03:41:33;15.13;;;10.77;;
44508;SDS011;30214;52.246;14.408;2023-09-18T03:44:00;15.77;;;10.57;;
44508;SDS011;30214;52.246;14.408;2023-09-18T03:46:27;14.00;;;9.25;;
44508;SDS011;30214;52.246;14.408;2023-09-18T03:48:55;14.63;;;9.55;;
44508;SDS011;30214;52.246;14.408;2023-09-18T03:51:23;14.93;;;9.40;;
44508;SDS011;30214;52.246;14.408;2023-09-18T03:53:50;13.70;;;10.68;;
44508;SDS011;30214;52.246;14.408;2023-09-18T03:56:18;12.63;;;9.52;;
44508;SDS011;30214;52.246;14.408;2023-09-18T03:58:46;14.02;;;9.27;;
44508;SDS011;30214;52.246;14.408;2023-09-18T04:01:14;12.82;;;9.82;;
44508;SDS011;30214;52.246;14.408;2023-09-18T04:03:41;14.50;;;10.43;;
44508;SDS011;30214;52.246;14.408;2023-09-18T04:06:08;16.33;;;10.23;;
44508;SDS011;30214;52.246;14.408;2023-09-18T04:08:35;13.25;;;9.95;;
44508;SDS011;30214;52.246;14.408;2023-09-18T04:11:02;16.25;;;9.60;;
44508;SDS011;30214;52.246;14.408;2023-09-18T04:13:29;13.65;;;9.35;;
44508;SDS011;30214;52.246;14.408;2023-09-18T04:15:57;15.88;;;9.75;;
44508;SDS011;30214;52.246;14.408;2023-09-18T04:18:25;13.60;;;8.95;;
44508;SDS011;30214;52.246;14.408;2023-09-18T04:20:53;12.38;;;9.02;;
44508;SDS011;30214;52.246;14.408;2023-09-18T04:23:20;13.20;;;9.32;;
44508;SDS011;30214;52.246;14.408;2023-09-18T04:25:50;14.15;;;8.93;;
44508;SDS011;30214;52.246;14.408;2023-09-18T04:28:18;13.25;;;9.55;;
44508;SDS011;30214;52.246;14.408;2023-09-18T04:30:46;11.13;;;9.05;;
44508;SDS011;30214;52.246;14.408;2023-09-18T04:33:14;14.15;;;9.20;;
44508;SDS011;30214;52.246;14.408;2023-09-18T04:35:42;14.35;;;9.43;;
44508;SDS011;30214;52.246;14.408;2023-09-18T04:38:10;15.07;;;8.80;;
44508;SDS011;30214;52.246;14.408;2023-09-18T04:40:39;12.38;;;9.48;;
44508;SDS011;30214;52.246;14.408;2023-09-18T04:43:06;16.80;;;9.60;;
44508;SDS011;30214;52.246;14.408;2023-09-18T04:45:33;12.52;;;9.27;;
44508;SDS011;30214;52.246;14.408;2023-09-18T04:48:00;11.85;;;9.35;;
44508;SDS011;30214;52.246;14.408;2023-09-18T04:50:29;11.18;;;8.88;;
44508;SDS011;30214;52.246;14.408;2023-09-18T04:52:57;13.43;;;9.77;;
44508;SDS011;30214;52.246;14.408;2023-09-18T04:55:24;12.25;;;9.40;;
44508;SDS011;30214;52.246;14.408;2023-09-18T04:57:52;14.32;;;9.38;;
44508;SDS011;30214;52.246;14.408;2023-09-18T05:00:19;11.27;;;8.75;;
44508;SDS011;30214;52.246;14.408;2023-09-18T05:02:48;16.25;;;10.00;;
44508;SDS011;30214;52.246;14.408;2023-09-18T05:05:16;12.70;;;9.70;;
44508;SDS011;30214;52.246;14.408;2023-09-18T05:07:45;11.55;;;9.30;;
44508;SDS011;30214;52.246;14.408;2023-09-18T05:10:12;12.45;;;10.50;;
44508;SDS011;30214;52.246;14.408;2023-09-18T05:12:39;10.98;;;9.57;;
44508;SDS011;30214;52.246;14.408;2023-09-18T05:15:07;15.75;;;10.50;;
44508;SDS011;30214;52.246;14.408;2023-09-18T05:17:41;17.30;;;9.23;;
44508;SDS011;30214;52.246;14.408;2023-09-18T05:20:09;13.32;;;9.73;;
44508;SDS011;30214;52.246;14.408;2023-09-18T05:22:41;12.65;;;9.68;;
44508;SDS011;30214;52.246;14.408;2023-09-18T05:25:10;17.33;;;9.45;;
44508;SDS011;30214;52.246;14.408;2023-09-18T05:27:37;13.48;;;9.13;;
44508;SDS011;30214;52.246;14.408;2023-09-18T05:30:10;23.52;;;9.43;;
44508;SDS011;30214;52.246;14.408;2023-09-18T05:32:41;11.65;;;9.68;;
44508;SDS011;30214;52.246;14.408;2023-09-18T05:35:09;12.75;;;9.27;;
44508;SDS011;30214;52.246;14.408;2023-09-18T05:37:38;16.27;;;9.77;;
44508;SDS011;30214;52.246;14.408;2023-09-18T05:40:05;12.73;;;9.57;;
44508;SDS011;30214;52.246;14.408;2023-09-18T05:42:36;11.23;;;8.98;;
44508;SDS011;30214;52.246;14.408;2023-09-18T05:45:03;16.67;;;9.35;;
44508;SDS011;30214;52.246;14.408;2023-09-18T05:47:32;16.15;;;8.93;;
44508;SDS011;30214;52.246;14.408;2023-09-18T05:50:00;12.70;;;8.90;;
44508;SDS011;30214;52.246;14.408;2023-09-18T05:52:29;12.25;;;8.52;;
44508;SDS011;30214;52.246;14.408;2023-09-18T05:54:56;11.40;;;8.40;;
44508;SDS011;30214;52.246;14.408;2023-09-18T05:57:23;21.67;;;9.68;;
44508;SDS011;30214;52.246;14.408;2023-09-18T05:59:53;13.13;;;8.65;;
44508;SDS011;30214;52.246;14.408;2023-09-18T06:02:20;11.93;;;8.80;;
44508;SDS011;30214;52.246;14.408;2023-09-18T06:04:48;13.90;;;9.20;;
44508;SDS011;30214;52.246;14.408;2023-09-18T06:07:15;12.35;;;8.50;;
44508;SDS011;30214;52.246;14.408;2023-09-18T06:09:42;14.00;;;8.48;;
44508;SDS011;30214;52.246;14.408;2023-09-18T06:12:09;15.07;;;8.82;;
44508;SDS011;30214;52.246;14.408;2023-09-18T06:14:36;19.17;;;8.57;;
44508;SDS011;30214;52.246;14.408;2023-09-18T06:17:05;13.32;;;8.52;;
44508;SDS011;30214;52.246;14.408;2023-09-18T06:19:32;13.10;;;8.43;;
44508;SDS011;30214;52.246;14.408;2023-09-18T06:21:59;13.27;;;8.20;;
44508;SDS011;30214;52.246;14.408;2023-09-18T06:24:26;12.65;;;8.77;;
44508;SDS011;30214;52.246;14.408;2023-09-18T06:26:53;12.05;;;7.63;;
44508;SDS011;30214;52.246;14.408;2023-09-18T06:29:20;13.68;;;7.88;;
44508;SDS011;30214;52.246;14.408;2023-09-18T06:31:46;12.32;;;7.68;;
44508;SDS011;30214;52.246;14.408;2023-09-18T06:34:15;10.25;;;7.60;;
44508;SDS011;30214;52.246;14.408;2023-09-18T06:36:42;14.60;;;7.57;;
44508;SDS011;30214;52.246;14.408;2023-09-18T06:39:09;15.68;;;7.70;;
44508;SDS011;30214;52.246;14.408;2023-09-18T06:41:36;10.63;;;7.35;;
44508;SDS011;30214;52.246;14.408;2023-09-18T06:44:03;9.38;;;7.25;;
44508;SDS011;30214;52.246;14.408;2023-09-18T06:46:31;11.07;;;7.03;;
44508;SDS011;30214;52.246;14.408;2023-09-18T06:48:58;11.27;;;7.15;;
44508;SDS011;30214;52.246;14.408;2023-09-18T06:51:27;10.10;;;6.70;;
44508;SDS011;30214;52.246;14.408;2023-09-18T06:53:54;8.48;;;6.60;;
44508;SDS011;30214;52.246;14.408;2023-09-18T06:56:22;9.32;;;6.75;;
44508;SDS011;30214;52.246;14.408;2023-09-18T06:58:49;10.75;;;6.32;;
44508;SDS011;30214;52.246;14.408;2023-09-18T07:01:17;10.63;;;6.18;;
44508;SDS011;30214;52.246;14.408;2023-09-18T07:03:44;11.10;;;6.40;;
44508;SDS011;30214;52.246;14.408;2023-09-18T07:06:12;8.60;;;6.50;;
44508;SDS011;30214;52.246;14.408;2023-09-18T07:08:42;10.00;;;6.72;;
44508;SDS011;30214;52.246;14.408;2023-09-18T07:11:10;8.98;;;6.15;;
44508;SDS011;30214;52.246;14.408;2023-09-18T07:13:37;6.63;;;5.78;;
44508;SDS011;30214;52.246;14.408;2023-09-18T07:16:04;7.32;;;5.97;;
44508;SDS011;30214;52.246;14.408;2023-09-18T07:18:32;8.30;;;5.72;;
44508;SDS011;30214;52.246;14.408;2023-09-18T07:20:58;8.80;;;5.70;;
44508;SDS011;30214;52.246;14.408;2023-09-18T07:23:25;8.68;;;5.72;;
44508;SDS011;30214;52.246;14.408;2023-09-18T07:25:54;9.02;;;6.15;;
44508;SDS011;30214;52.246;14.408;2023-09-18T07:28:23;8.45;;;5.72;;
44508;SDS011;30214;52.246;14.408;2023-09-18T07:30:50;8.00;;;5.35;;
44508;SDS011;30214;52.246;14.408;2023-09-18T07:33:17;11.20;;;5.35;;
44508;SDS011;30214;52.246;14.408;2023-09-18T07:35:46;7.53;;;5.38;;
44508;SDS011;30214;52.246;14.408;2023-09-18T07:38:13;11.40;;;5.25;;
44508;SDS011;30214;52.246;14.408;2023-09-18T07:40:41;7.55;;;5.30;;
44508;SDS011;30214;52.246;14.408;2023-09-18T07:43:09;7.55;;;5.22;;
44508;SDS011;30214;52.246;14.408;2023-09-18T07:45:37;6.53;;;5.30;;
44508;SDS011;30214;52.246;14.408;2023-09-18T07:48:05;8.18;;;4.97;;
44508;SDS011;30214;52.246;14.408;2023-09-18T07:50:32;6.53;;;4.97;;
44508;SDS011;30214;52.246;14.408;2023-09-18T07:52:59;6.13;;;4.97;;
44508;SDS011;30214;52.246;14.408;2023-09-18T07:55:26;6.28;;;5.03;;
44508;SDS011;30214;52.246;14.408;2023-09-18T07:57:54;5.95;;;4.63;;
44508;SDS011;30214;52.246;14.408;2023-09-18T08:00:23;5.88;;;4.60;;
44508;SDS011;30214;52.246;14.408;2023-09-18T08:02:51;6.55;;;4.63;;
44508;SDS011;30214;52.246;14.408;2023-09-18T08:05:23;5.93;;;3.60;;
44508;SDS011;30214;52.246;14.408;2023-09-18T08:07:53;10.07;;;4.43;;
44508;SDS011;30214;52.246;14.408;2023-09-18T08:10:22;5.32;;;4.20;;
44508;SDS011;30214;52.246;14.408;2023-09-18T08:12:49;6.03;;;4.38;;
44508;SDS011;30214;52.246;14.408;2023-09-18T08:15:18;5.30;;;4.20;;
44508;SDS011;30214;52.246;14.408;2023-09-18T08:17:47;6.22;;;4.18;;
44508;SDS011;30214;52.246;14.408;2023-09-18T08:20:15;5.50;;;4.03;;
44508;SDS011;30214;52.246;14.408;2023-09-18T08:22:42;8.57;;;4.40;;
44508;SDS011;30214;52.246;14.408;2023-09-18T08:25:11;10.10;;;4.03;;
44508;SDS011;30214;52.246;14.408;2023-09-18T08:27:38;5.22;;;4.30;;
44508;SDS011;30214;52.246;14.408;2023-09-18T08:30:07;6.32;;;4.20;;
44508;SDS011;30214;52.246;14.408;2023-09-18T08:32:35;7.10;;;3.88;;
44508;SDS011;30214;52.246;14.408;2023-09-18T08:35:04;5.55;;;3.95;;
44508;SDS011;30214;52.246;14.408;2023-09-18T08:37:32;6.65;;;3.50;;
44508;SDS011;30214;52.246;14.408;2023-09-18T08:39:59;4.85;;;3.88;;
44508;SDS011;30214;52.246;14.408;2023-09-18T08:42:26;6.18;;;3.80;;
44508;SDS011;30214;52.246;14.408;2023-09-18T08:44:56;4.93;;;3.80;;
44508;SDS011;30214;52.246;14.408;2023-09-18T08:47:25;7.78;;;3.60;;
44508;SDS011;30214;52.246;14.408;2023-09-18T08:49:52;4.68;;;3.42;;
44508;SDS011;30214;52.246;14.408;2023-09-18T08:52:22;7.03;;;3.70;;
44508;SDS011;30214;52.246;14.408;2023-09-18T08:54:50;6.05;;;3.90;;
44508;SDS011;30214;52.246;14.408;2023-09-18T08:57:18;4.10;;;3.40;;
44508;SDS011;30214;52.246;14.408;2023-09-18T08:59:46;8.55;;;4.43;;
44508;SDS011;30214;52.246;14.408;2023-09-18T09:02:14;4.63;;;3.55;;
44508;SDS011;30214;52.246;14.408;2023-09-18T09:04:41;8.45;;;3.95;;
44508;SDS011;30214;52.246;14.408;2023-09-18T09:07:08;5.40;;;3.50;;
44508;SDS011;30214;52.246;14.408;2023-09-18T09:09:36;4.55;;;3.55;;
44508;SDS011;30214;52.246;14.408;2023-09-18T09:12:04;6.80;;;3.47;;
44508;SDS011;30214;52.246;14.408;2023-09-18T09:14:31;6.00;;;3.38;;
44508;SDS011;30214;52.246;14.408;2023-09-18T09:16:58;6.75;;;3.30;;
44508;SDS011;30214;52.246;14.408;2023-09-18T09:19:29;6.18;;;3.35;;
44508;SDS011;30214;52.246;14.408;2023-09-18T09:22:04;6.32;;;3.25;;
44508;SDS011;30214;52.246;14.408;2023-09-18T09:24:39;4.47;;;2.97;;
44508;SDS011;30214;52.246;14.408;2023-09-18T09:27:07;5.28;;;3.20;;
44508;SDS011;30214;52.246;14.408;2023-09-18T09:29:34;3.75;;;2.90;;
44508;SDS011;30214;52.246;14.408;2023-09-18T09:32:14;4.43;;;2.90;;
44508;SDS011;30214;52.246;14.408;2023-09-18T09:34:42;8.27;;;2.70;;
44508;SDS011;30214;52.246;14.408;2023-09-18T09:37:09;7.47;;;4.05;;
44508;SDS011;30214;52.246;14.408;2023-09-18T09:39:47;4.45;;;2.30;;
44508;SDS011;30214;52.246;14.408;2023-09-18T09:42:15;3.83;;;2.60;;
44508;SDS011;30214;52.246;14.408;2023-09-18T09:44:55;3.83;;;2.55;;
44508;SDS011;30214;52.246;14.408;2023-09-18T09:47:28;4.70;;;2.72;;
44508;SDS011;30214;52.246;14.408;2023-09-18T09:50:05;4.43;;;2.42;;
44508;SDS011;30214;52.246;14.408;2023-09-18T09:52:40;5.35;;;2.33;;
44508;SDS011;30214;52.246;14.408;2023-09-18T09:55:20;4.55;;;2.35;;
44508;SDS011;30214;52.246;14.408;2023-09-18T09:57:50;3.95;;;2.15;;
44508;SDS011;30214;52.246;14.408;2023-09-18T10:00:19;4.90;;;2.50;;
44508;SDS011;30214;52.246;14.408;2023-09-18T10:02:53;5.03;;;2.78;;
44508;SDS011;30214;52.246;14.408;2023-09-18T10:05:24;4.13;;;2.40;;
44508;SDS011;30214;52.246;14.408;2023-09-18T10:07:57;3.38;;;2.53;;
44508;SDS011;30214;52.246;14.408;2023-09-18T10:10:36;4.55;;;2.28;;
44508;SDS011;30214;52.246;14.408;2023-09-18T10:13:09;4.25;;;2.53;;
44508;SDS011;30214;52.246;14.408;2023-09-18T10:15:42;3.72;;;2.40;;
44508;SDS011;30214;52.246;14.408;2023-09-18T10:18:16;4.05;;;2.65;;
44508;SDS011;30214;52.246;14.408;2023-09-18T10:20:55;4.53;;;2.45;;
44508;SDS011;30214;52.246;14.408;2023-09-18T10:23:34;5.80;;;2.90;;
44508;SDS011;30214;52.246;14.408;2023-09-18T10:26:11;4.43;;;2.83;;
44508;SDS011;30214;52.246;14.408;2023-09-18T10:28:41;3.90;;;2.70;;
44508;SDS011;30214;52.246;14.408;2023-09-18T10:31:11;7.03;;;2.58;;
44508;SDS011;30214;52.246;14.408;2023-09-18T10:33:39;6.07;;;2.58;;
44508;SDS011;30214;52.246;14.408;2023-09-18T10:36:07;5.03;;;2.70;;
44508;SDS011;30214;52.246;14.408;2023-09-18T10:38:36;4.85;;;2.70;;
44508;SDS011;30214;52.246;14.408;2023-09-18T10:41:04;5.18;;;2.80;;
44508;SDS011;30214;52.246;14.408;2023-09-18T10:43:35;3.95;;;2.42;;
44508;SDS011;30214;52.246;14.408;2023-09-18T10:46:02;3.70;;;2.78;;
44508;SDS011;30214;52.246;14.408;2023-09-18T10:48:29;3.53;;;2.67;;
44508;SDS011;30214;52.246;14.408;2023-09-18T10:50:57;5.35;;;2.58;;
44508;SDS011;30214;52.246;14.408;2023-09-18T10:53:31;9.43;;;2.38;;
44508;SDS011;30214;52.246;14.408;2023-09-18T10:55:58;3.63;;;2.60;;
44508;SDS011;30214;52.246;14.408;2023-09-18T10:58:27;6.95;;;2.55;;
44508;SDS011;30214;52.246;14.408;2023-09-18T11:00:56;3.35;;;2.58;;
44508;SDS011;30214;52.246;14.408;2023-09-18T11:03:25;4.22;;;3.22;;
44508;SDS011;30214;52.246;14.408;2023-09-18T11:06:02;5.60;;;2.50;;
44508;SDS011;30214;52.246;14.408;2023-09-18T11:08:32;5.18;;;2.67;;
44508;SDS011;30214;52.246;14.408;2023-09-18T11:11:01;4.03;;;2.72;;
44508;SDS011;30214;52.246;14.408;2023-09-18T11:13:38;4.60;;;2.58;;
44508;SDS011;30214;52.246;14.408;2023-09-18T11:16:14;5.68;;;2.70;;
44508;SDS011;30214;52.246;14.408;2023-09-18T11:19:05;6.47;;;2.60;;
44508;SDS011;30214;52.246;14.408;2023-09-18T11:21:34;5.30;;;2.90;;
44508;SDS011;30214;52.246;14.408;2023-09-18T11:24:02;3.78;;;2.63;;
44508;SDS011;30214;52.246;14.408;2023-09-18T11:26:31;4.32;;;3.05;;
44508;SDS011;30214;52.246;14.408;2023-09-18T11:28:59;3.55;;;2.67;;
44508;SDS011;30214;52.246;14.408;2023-09-18T11:31:54;5.55;;;3.00;;
44508;SDS011;30214;52.246;14.408;2023-09-18T11:34:23;5.30;;;2.80;;
44508;SDS011;30214;52.246;14.408;2023-09-18T11:36:52;3.50;;;2.90;;
44508;SDS011;30214;52.246;14.408;2023-09-18T11:39:35;3.30;;;2.60;;
44508;SDS011;30214;52.246;14.408;2023-09-18T11:42:07;4.40;;;3.03;;
44508;SDS011;30214;52.246;14.408;2023-09-18T11:44:36;7.57;;;3.10;;
44508;SDS011;30214;52.246;14.408;2023-09-18T11:47:12;5.47;;;2.80;;
44508;SDS011;30214;52.246;14.408;2023-09-18T11:49:46;5.00;;;3.00;;
44508;SDS011;30214;52.246;14.408;2023-09-18T11:52:16;5.07;;;2.97;;
44508;SDS011;30214;52.246;14.408;2023-09-18T11:54:43;3.95;;;2.85;;
44508;SDS011;30214;52.246;14.408;2023-09-18T11:57:12;8.52;;;3.28;;
44508;SDS011;30214;52.246;14.408;2023-09-18T11:59:40;4.90;;;3.20;;
44508;SDS011;30214;52.246;14.408;2023-09-18T12:02:09;6.55;;;3.00;;
44508;SDS011;30214;52.246;14.408;2023-09-18T12:04:42;5.10;;;3.28;;
44508;SDS011;30214;52.246;14.408;2023-09-18T12:07:09;3.65;;;2.75;;
44508;SDS011;30214;52.246;14.408;2023-09-18T12:09:37;5.07;;;3.00;;
44508;SDS011;30214;52.246;14.408;2023-09-18T12:12:06;5.38;;;2.80;;
44508;SDS011;30214;52.246;14.408;2023-09-18T12:14:33;7.45;;;2.80;;
44508;SDS011;30214;52.246;14.408;2023-09-18T12:17:03;4.13;;;2.80;;
44508;SDS011;30214;52.246;14.408;2023-09-18T12:19:32;4.05;;;2.85;;
44508;SDS011;30214;52.246;14.408;2023-09-18T12:22:02;5.93;;;2.90;;
44508;SDS011;30214;52.246;14.408;2023-09-18T12:24:30;4.57;;;2.70;;
44508;SDS011;30214;52.246;14.408;2023-09-18T12:26:58;3.47;;;2.70;;
44508;SDS011;30214;52.246;14.408;2023-09-18T12:29:25;4.88;;;2.83;;
44508;SDS011;30214;52.246;14.408;2023-09-18T12:31:52;5.97;;;3.13;;
44508;SDS011;30214;52.246;14.408;2023-09-18T12:34:20;5.32;;;2.90;;
44508;SDS011;30214;52.246;14.408;2023-09-18T12:36:48;6.65;;;3.08;;
44508;SDS011;30214;52.246;14.408;2023-09-18T12:39:18;3.78;;;2.63;;
44508;SDS011;30214;52.246;14.408;2023-09-18T12:41:46;3.30;;;2.70;;
44508;SDS011;30214;52.246;14.408;2023-09-18T12:44:14;5.57;;;2.78;;
44508;SDS011;30214;52.246;14.408;2023-09-18T12:46:42;5.10;;;2.60;;
44508;SDS011;30214;52.246;14.408;2023-09-18T12:49:19;3.92;;;2.72;;
44508;SDS011;30214;52.246;14.408;2023-09-18T12:51:56;7.30;;;2.80;;
44508;SDS011;30214;52.246;14.408;2023-09-18T12:54:38;6.65;;;2.78;;
44508;SDS011;30214;52.246;14.408;2023-09-18T12:57:05;3.88;;;2.70;;
44508;SDS011;30214;52.246;14.408;2023-09-18T12:59:34;4.15;;;2.90;;
44508;SDS011;30214;52.246;14.408;2023-09-18T13:02:03;6.03;;;2.55;;
44508;SDS011;30214;52.246;14.408;2023-09-18T13:04:31;7.53;;;3.00;;
44508;SDS011;30214;52.246;14.408;2023-09-18T13:07:11;4.95;;;2.40;;
44508;SDS011;30214;52.246;14.408;2023-09-18T13:09:40;4.90;;;2.65;;
44508;SDS011;30214;52.246;14.408;2023-09-18T13:12:08;4.13;;;2.75;;
44508;SDS011;30214;52.246;14.408;2023-09-18T13:17:25;5.93;;;2.53;;
44508;SDS011;30214;52.246;14.408;2023-09-18T13:19:53;6.20;;;3.00;;
44508;SDS011;30214;52.246;14.408;2023-09-18T13:22:23;5.00;;;2.90;;
44508;SDS011;30214;52.246;14.408;2023-09-18T13:24:56;5.97;;;3.25;;
44508;SDS011;30214;52.246;14.408;2023-09-18T13:27:23;5.68;;;2.80;;
44508;SDS011;30214;52.246;14.408;2023-09-18T13:29:51;6.80;;;2.90;;
44508;SDS011;30214;52.246;14.408;2023-09-18T13:32:19;5.38;;;3.00;;
44508;SDS011;30214;52.246;14.408;2023-09-18T13:34:47;5.03;;;2.80;;
44508;SDS011;30214;52.246;14.408;2023-09-18T13:37:14;11.43;;;3.10;;
44508;SDS011;30214;52.246;14.408;2023-09-18T13:39:42;6.57;;;3.20;;
44508;SDS011;30214;52.246;14.408;2023-09-18T13:42:12;8.07;;;3.30;;
44508;SDS011;30214;52.246;14.408;2023-09-18T13:44:42;10.55;;;3.60;;
44508;SDS011;30214;52.246;14.408;2023-09-18T13:47:12;8.18;;;4.13;;
44508;SDS011;30214;52.246;14.408;2023-09-18T13:49:39;6.15;;;3.10;;
44508;SDS011;30214;52.246;14.408;2023-09-18T13:52:06;7.35;;;3.33;;
44508;SDS011;30214;52.246;14.408;2023-09-18T13:54:33;12.90;;;4.55;;
44508;SDS011;30214;52.246;14.408;2023-09-18T13:57:00;8.93;;;4.40;;
44508;SDS011;30214;52.246;14.408;2023-09-18T13:59:31;12.23;;;4.53;;
44508;SDS011;30214;52.246;14.408;2023-09-18T14:01:59;13.10;;;3.53;;
44508;SDS011;30214;52.246;14.408;2023-09-18T14:04:26;6.85;;;2.90;;
44508;SDS011;30214;52.246;14.408;2023-09-18T14:06:54;9.88;;;3.38;;
44508;SDS011;30214;52.246;14.408;2023-09-18T14:09:21;7.47;;;3.35;;
44508;SDS011;30214;52.246;14.408;2023-09-18T14:11:48;6.05;;;2.90;;
44508;SDS011;30214;52.246;14.408;2023-09-18T14:14:15;5.68;;;2.70;;
44508;SDS011;30214;52.246;14.408;2023-09-18T14:16:43;5.10;;;2.92;;
44508;SDS011;30214;52.246;14.408;2023-09-18T14:19:10;10.00;;;3.38;;
44508;SDS011;30214;52.246;14.408;2023-09-18T14:21:38;7.88;;;2.65;;
44508;SDS011;30214;52.246;14.408;2023-09-18T14:24:05;11.35;;;3.28;;
44508;SDS011;30214;52.246;14.408;2023-09-18T14:26:32;8.52;;;2.92;;
44508;SDS011;30214;52.246;14.408;2023-09-18T14:29:05;5.07;;;3.00;;
44508;SDS011;30214;52.246;14.408;2023-09-18T14:31:32;4.75;;;2.90;;
44508;SDS011;30214;52.246;14.408;2023-09-18T14:34:01;8.38;;;3.08;;
44508;SDS011;30214;52.246;14.408;2023-09-18T14:36:29;7.07;;;2.95;;
44508;SDS011;30214;52.246;14.408;2023-09-18T14:38:57;7.68;;;2.75;;